createdAt,value
2023-04-25T00:00:07.745Z,18.02
2023-04-25T00:02:37.038Z,16.10
2023-04-25T00:05:05.945Z,16.27
2023-04-25T00:07:34.093Z,15.65
2023-04-25T00:10:01.633Z,13.63
2023-04-25T00:12:29.887Z,16.98
2023-04-25T00:14:58.970Z,15.73
2023-04-25T00:17:27.749Z,15.15
2023-04-25T00:19:56.826Z,16.60
2023-04-25T00:22:24.337Z,15.80
2023-04-25T00:24:54.153Z,17.27
2023-04-25T00:27:21.642Z,16.42
2023-04-25T00:29:49.109Z,15.38
2023-04-25T00:32:16.598Z,20.88
2023-04-25T00:34:44.046Z,16.33
2023-04-25T00:37:13.603Z,18.38
2023-04-25T00:39:41.160Z,14.85
2023-04-25T00:42:09.543Z,16.92
2023-04-25T00:44:37.535Z,14.23
2023-04-25T00:47:05.444Z,13.27
2023-04-25T00:49:33.157Z,15.43
2023-04-25T00:52:00.999Z,13.02
2023-04-25T00:54:31.034Z,15.52
2023-04-25T00:56:59.000Z,16.20
2023-04-25T00:59:28.138Z,13.40
2023-04-25T01:01:55.876Z,15.55
2023-04-25T01:04:23.658Z,15.20
2023-04-25T01:06:51.721Z,16.30
2023-04-25T01:09:20.452Z,15.98
2023-04-25T01:11:49.294Z,17.60
2023-04-25T01:14:16.917Z,14.43
2023-04-25T01:16:45.753Z,16.88
2023-04-25T01:19:14.029Z,17.67
2023-04-25T01:21:43.022Z,15.88
2023-04-25T01:24:10.758Z,20.30
2023-04-25T01:26:38.494Z,17.27
2023-04-25T01:29:06.452Z,14.68
2023-04-25T01:31:34.933Z,14.25
2023-04-25T01:34:02.728Z,14.13
2023-04-25T01:36:31.371Z,14.27
2023-04-25T01:39:00.411Z,12.98
2023-04-25T01:41:28.412Z,14.18
2023-04-25T01:43:56.445Z,13.05
2023-04-25T01:46:24.192Z,13.85
2023-04-25T01:48:51.757Z,16.20
2023-04-25T01:51:19.563Z,16.67
2023-04-25T01:53:47.416Z,16.23
2023-04-25T01:56:16.368Z,16.20
2023-04-25T01:58:43.846Z,17.48
2023-04-25T02:01:11.335Z,15.93
2023-04-25T02:03:39.120Z,16.17
2023-04-25T02:06:06.946Z,20.05
2023-04-25T02:08:34.465Z,18.33
2023-04-25T02:11:01.991Z,18.55
2023-04-25T02:13:30.948Z,17.57
2023-04-25T02:15:58.931Z,16.25
2023-04-25T02:18:27.318Z,18.63
2023-04-25T02:20:54.877Z,19.02
2023-04-25T02:23:22.488Z,22.95
2023-04-25T02:25:50.560Z,21.43
2023-04-25T02:28:17.995Z,17.42
2023-04-25T02:30:46.844Z,15.85
2023-04-25T02:33:14.408Z,16.33
2023-04-25T02:35:41.869Z,15.68
2023-04-25T02:38:09.332Z,15.53
2023-04-25T02:40:36.816Z,19.70
2023-04-25T02:43:04.263Z,18.35
2023-04-25T02:45:31.770Z,16.33
2023-04-25T02:48:00.698Z,16.08
2023-04-25T02:50:28.216Z,15.33
2023-04-25T02:52:55.626Z,15.63
2023-04-25T02:55:23.968Z,15.20
2023-04-25T02:57:52.278Z,17.30
2023-04-25T03:00:19.800Z,16.58
2023-04-25T03:02:47.401Z,15.43
2023-04-25T03:05:16.627Z,16.50
2023-04-25T03:07:44.987Z,17.48
2023-04-25T03:10:12.965Z,19.58
2023-04-25T03:12:40.775Z,17.73
2023-04-25T03:15:09.194Z,20.73
2023-04-25T03:17:36.930Z,19.33
2023-04-25T03:20:06.386Z,16.83
2023-04-25T03:22:35.442Z,19.63
2023-04-25T03:25:03.772Z,16.23
2023-04-25T03:27:31.475Z,15.23
2023-04-25T03:29:59.142Z,17.30
2023-04-25T03:32:27.040Z,14.02
2023-04-25T03:34:54.755Z,13.95
2023-04-25T03:37:22.437Z,22.35
2023-04-25T03:39:51.903Z,19.20
2023-04-25T03:42:20.780Z,17.80
2023-04-25T03:44:48.542Z,13.63
2023-04-25T03:47:16.264Z,13.02
2023-04-25T03:49:44.475Z,14.38
2023-04-25T03:52:12.081Z,9.50
2023-04-25T03:54:39.638Z,22.23
2023-04-25T03:57:14.797Z,14.50
2023-04-25T03:59:42.420Z,21.23
2023-04-25T04:02:10.150Z,17.05
2023-04-25T04:04:38.433Z,13.87
2023-04-25T04:07:06.451Z,16.75
2023-04-25T04:09:34.069Z,20.70
2023-04-25T04:12:02.412Z,18.38
2023-04-25T04:14:31.512Z,17.58
2023-04-25T04:16:59.123Z,17.27
2023-04-25T04:19:26.782Z,12.85
2023-04-25T04:21:54.388Z,17.23
2023-04-25T04:24:21.965Z,12.70
2023-04-25T04:26:49.558Z,8.48
2023-04-25T04:29:21.745Z,20.30
2023-04-25T04:31:52.261Z,17.05
2023-04-25T04:34:20.327Z,14.07
2023-04-25T04:36:48.218Z,12.98
2023-04-25T04:39:16.178Z,16.08
2023-04-25T04:41:43.812Z,8.90
2023-04-25T04:44:11.696Z,9.13
2023-04-25T04:46:42.896Z,9.05
2023-04-25T04:49:13.286Z,13.35
2023-04-25T04:51:41.435Z,10.85
2023-04-25T04:54:08.960Z,11.03
2023-04-25T04:56:36.542Z,8.20
2023-04-25T04:59:04.135Z,9.88
2023-04-25T05:01:31.838Z,8.30
2023-04-25T05:04:01.796Z,12.07
2023-04-25T05:06:32.105Z,9.10
2023-04-25T05:09:00.878Z,10.90
2023-04-25T05:11:28.438Z,8.55
2023-04-25T05:13:56.075Z,13.32
2023-04-25T05:16:23.650Z,9.82
2023-04-25T05:18:51.158Z,13.40
2023-04-25T05:21:18.690Z,10.82
2023-04-25T05:23:47.582Z,15.48
2023-04-25T05:26:15.581Z,9.15
2023-04-25T05:28:43.502Z,7.63
2023-04-25T05:31:12.064Z,12.83
2023-04-25T05:33:39.922Z,11.57
2023-04-25T05:36:08.668Z,13.30
2023-04-25T05:38:36.313Z,16.15
2023-04-25T05:41:05.412Z,8.85
2023-04-25T05:43:33.146Z,17.40
2023-04-25T05:46:01.202Z,11.60
2023-04-25T05:48:28.892Z,14.38
2023-04-25T05:50:56.419Z,17.33
2023-04-25T05:53:23.950Z,12.02
2023-04-25T05:55:51.644Z,10.23
2023-04-25T05:58:20.644Z,15.25
2023-04-25T06:00:48.298Z,5.65
2023-04-25T06:03:19.642Z,8.80
2023-04-25T06:05:48.120Z,7.93
2023-04-25T06:08:15.718Z,20.27
2023-04-25T06:10:43.517Z,14.07
2023-04-25T06:13:11.026Z,12.23
2023-04-25T06:15:40.008Z,11.50
2023-04-25T06:18:07.560Z,15.63
2023-04-25T06:20:35.104Z,17.33
2023-04-25T06:23:02.578Z,8.13
2023-04-25T06:25:30.053Z,13.90
2023-04-25T06:27:57.522Z,12.38
2023-04-25T06:30:26.657Z,9.35
2023-04-25T06:32:55.765Z,11.77
2023-04-25T06:35:23.185Z,15.10
2023-04-25T06:37:50.741Z,8.68
2023-04-25T06:40:18.292Z,10.00
2023-04-25T06:42:45.718Z,14.60
2023-04-25T06:45:13.155Z,11.40
2023-04-25T06:47:40.650Z,10.25
2023-04-25T06:50:10.659Z,21.40
2023-04-25T06:52:38.182Z,14.55
2023-04-25T06:55:06.508Z,10.75
2023-04-25T06:57:34.085Z,14.77
2023-04-25T07:00:02.451Z,9.13
2023-04-25T07:02:30.277Z,6.85
2023-04-25T07:05:00.595Z,8.65
2023-04-25T07:07:29.691Z,7.32
2023-04-25T07:09:57.224Z,9.60
2023-04-25T07:12:24.776Z,7.18
2023-04-25T07:14:52.201Z,7.30
2023-04-25T07:17:19.623Z,8.40
2023-04-25T07:19:47.083Z,10.10
2023-04-25T07:22:14.538Z,14.80
2023-04-25T07:24:43.387Z,8.20
2023-04-25T07:27:10.870Z,9.60
2023-04-25T07:29:38.953Z,13.48
2023-04-25T07:32:06.473Z,4.97
2023-04-25T07:34:38.040Z,7.07
2023-04-25T07:37:05.779Z,9.15
2023-04-25T07:39:33.421Z,11.02
2023-04-25T07:42:03.091Z,15.73
2023-04-25T07:44:31.543Z,12.57
2023-04-25T07:46:59.073Z,7.43
2023-04-25T07:49:26.652Z,6.40
2023-04-25T07:51:54.089Z,13.43
2023-04-25T07:54:21.548Z,7.93
2023-04-25T07:56:53.380Z,8.43
2023-04-25T07:59:22.648Z,7.77
2023-04-25T08:01:50.162Z,4.90
2023-04-25T08:04:17.702Z,8.75
2023-04-25T08:06:45.221Z,13.30
2023-04-25T08:09:12.921Z,8.85
2023-04-25T08:11:40.499Z,11.97
2023-04-25T08:14:07.939Z,6.30
2023-04-25T08:16:36.889Z,13.57
2023-04-25T08:19:04.323Z,12.63
2023-04-25T08:21:32.306Z,13.45
2023-04-25T08:23:59.923Z,5.70
2023-04-25T08:26:27.516Z,10.77
2023-04-25T08:28:54.977Z,8.68
2023-04-25T08:31:22.595Z,11.77
2023-04-25T08:33:52.786Z,10.45
2023-04-25T08:36:31.584Z,5.70
2023-04-25T08:39:06.557Z,7.90
2023-04-25T08:41:34.134Z,6.45
2023-04-25T08:44:02.749Z,6.57
2023-04-25T08:46:32.304Z,10.60
2023-04-25T08:49:03.140Z,13.30
2023-04-25T08:51:33.768Z,8.18
2023-04-25T08:54:34.198Z,4.90
2023-04-25T08:56:59.896Z,3.65
2023-04-25T08:59:28.097Z,7.35
2023-04-25T09:01:55.765Z,5.43
2023-04-25T09:04:24.624Z,4.07
2023-04-25T09:06:52.128Z,5.72
2023-04-25T09:09:19.539Z,2.92
2023-04-25T09:11:47.005Z,4.82
2023-04-25T09:14:16.094Z,4.47
2023-04-25T09:17:01.034Z,12.32
2023-04-25T09:19:40.144Z,5.97
2023-04-25T09:22:09.399Z,3.30
2023-04-25T09:24:38.629Z,3.95
2023-04-25T09:27:07.202Z,4.97
2023-04-25T09:29:37.188Z,5.50
2023-04-25T09:32:17.237Z,5.63
2023-04-25T09:34:50.319Z,3.72
2023-04-25T09:37:22.359Z,10.80
2023-04-25T09:39:51.013Z,2.23
2023-04-25T09:42:19.172Z,7.70
2023-04-25T09:44:47.447Z,5.15
2023-04-25T09:47:16.272Z,2.92
2023-04-25T09:49:45.834Z,9.48
2023-04-25T09:52:17.281Z,4.83
2023-04-25T09:54:44.935Z,5.70
2023-04-25T09:57:14.687Z,6.75
2023-04-25T09:59:46.560Z,3.05
2023-04-25T10:02:16.044Z,7.88
2023-04-25T10:04:46.053Z,4.27
2023-04-25T10:07:15.371Z,4.57
2023-04-25T10:09:46.532Z,7.72
2023-04-25T10:12:14.586Z,7.85
2023-04-25T10:14:42.943Z,6.18
2023-04-25T10:17:12.416Z,3.23
2023-04-25T10:19:41.106Z,7.32
2023-04-25T10:22:10.697Z,4.22
2023-04-25T10:24:40.590Z,6.85
2023-04-25T10:27:08.976Z,5.72
2023-04-25T10:29:37.254Z,8.10
2023-04-25T10:32:05.064Z,5.03
2023-04-25T10:34:42.666Z,4.97
2023-04-25T10:37:13.319Z,8.82
2023-04-25T10:39:44.572Z,5.95
2023-04-25T10:42:13.350Z,5.83
2023-04-25T10:44:41.202Z,9.00
2023-04-25T10:47:10.383Z,8.68
2023-04-25T10:49:40.201Z,6.72
2023-04-25T10:52:16.156Z,6.07
2023-04-25T10:54:48.902Z,3.73
2023-04-25T10:57:34.390Z,10.35
2023-04-25T11:00:06.890Z,6.95
2023-04-25T11:02:39.742Z,6.95
2023-04-25T11:05:08.724Z,10.75
2023-04-25T11:07:46.028Z,2.47
2023-04-25T11:10:17.367Z,3.58
2023-04-25T11:12:45.287Z,10.32
2023-04-25T11:15:13.036Z,5.70
2023-04-25T11:17:41.448Z,6.05
2023-04-25T11:20:12.298Z,4.77
2023-04-25T11:22:41.605Z,3.83
2023-04-25T11:25:10.404Z,2.42
2023-04-25T11:27:51.081Z,3.03
2023-04-25T11:30:19.146Z,4.32
2023-04-25T11:32:46.770Z,4.70
2023-04-25T11:35:16.038Z,6.53
2023-04-25T11:37:44.457Z,4.70
2023-04-25T11:40:12.874Z,4.78
2023-04-25T11:42:46.123Z,4.00
2023-04-25T11:45:14.543Z,6.90
2023-04-25T11:47:42.470Z,5.50
2023-04-25T11:50:11.240Z,7.43
2023-04-25T11:52:39.943Z,6.75
2023-04-25T11:55:11.087Z,2.60
2023-04-25T11:57:40.583Z,6.47
2023-04-25T12:00:18.567Z,3.13
2023-04-25T12:02:48.861Z,8.55
2023-04-25T12:05:31.389Z,11.13
2023-04-25T12:07:59.983Z,4.45
2023-04-25T12:10:28.301Z,9.37
2023-04-25T12:12:55.855Z,10.15
2023-04-25T12:15:27.199Z,4.15
2023-04-25T12:17:55.976Z,4.90
2023-04-25T12:20:26.784Z,9.63
2023-04-25T12:22:54.698Z,11.30
2023-04-25T12:25:39.031Z,5.40
2023-04-25T12:28:20.398Z,4.63
2023-04-25T12:30:59.739Z,6.38
2023-04-25T12:33:28.080Z,10.13
2023-04-25T12:35:56.102Z,6.63
2023-04-25T12:38:24.812Z,7.50
2023-04-25T12:40:52.274Z,4.78
2023-04-25T12:43:19.759Z,4.95
2023-04-25T12:45:49.472Z,6.82
2023-04-25T12:48:18.325Z,13.60
2023-04-25T12:50:48.706Z,6.50
2023-04-25T12:53:16.145Z,7.47
2023-04-25T12:55:43.619Z,6.97
2023-04-25T12:58:11.097Z,3.55
2023-04-25T13:00:38.667Z,10.90
2023-04-25T13:03:06.863Z,6.35
2023-04-25T13:05:36.183Z,7.35
2023-04-25T13:08:03.597Z,13.07
2023-04-25T13:10:31.301Z,8.65
2023-04-25T13:12:58.873Z,4.90
2023-04-25T13:15:26.420Z,6.70
2023-04-25T13:17:53.851Z,7.72
2023-04-25T13:20:23.229Z,5.75
2023-04-25T13:22:52.057Z,4.20
2023-04-25T13:25:19.731Z,6.07
2023-04-25T13:27:47.361Z,5.43
2023-04-25T13:30:15.317Z,8.02
2023-04-25T13:32:42.899Z,4.30
2023-04-25T13:35:12.596Z,11.90
2023-04-25T13:37:40.407Z,6.00
2023-04-25T13:40:12.061Z,8.98
2023-04-25T13:42:41.069Z,6.72
2023-04-25T13:45:09.782Z,6.00
2023-04-25T13:47:37.264Z,9.45
2023-04-25T13:50:07.247Z,4.60
2023-04-25T13:52:34.759Z,7.90
2023-04-25T13:55:04.319Z,7.20
2023-04-25T13:57:33.588Z,9.43
2023-04-25T14:00:05.584Z,6.30
2023-04-25T14:02:33.072Z,5.20
2023-04-25T14:05:01.119Z,4.88
2023-04-25T14:07:28.733Z,9.82
2023-04-25T14:09:58.114Z,4.85
2023-04-25T14:12:26.284Z,5.55
2023-04-25T14:14:55.019Z,4.17
2023-04-25T14:17:22.469Z,5.28
2023-04-25T14:19:51.311Z,6.57
2023-04-25T14:22:18.764Z,3.97
2023-04-25T14:24:46.272Z,5.75
2023-04-25T14:27:13.742Z,7.67
2023-04-25T14:29:41.176Z,3.63
2023-04-25T14:32:10.053Z,10.63
2023-04-25T14:34:37.529Z,7.68
2023-04-25T14:37:05.131Z,5.43
2023-04-25T14:39:32.546Z,3.00
2023-04-25T14:41:59.992Z,5.63
2023-04-25T14:44:27.384Z,3.35
2023-04-25T14:46:54.855Z,3.35
2023-04-25T14:49:23.701Z,4.60
2023-04-25T14:51:51.947Z,8.10
2023-04-25T14:54:19.442Z,6.18
2023-04-25T14:56:47.041Z,4.38
2023-04-25T14:59:14.521Z,2.33
2023-04-25T15:01:42.017Z,8.02
2023-04-25T15:04:09.865Z,4.83
2023-04-25T15:06:38.948Z,6.82
2023-04-25T15:09:06.372Z,5.97
2023-04-25T15:11:33.891Z,5.50
2023-04-25T15:14:01.393Z,4.05
2023-04-25T15:16:28.998Z,4.70
2023-04-25T15:18:56.491Z,7.10
2023-04-25T15:21:23.961Z,3.90
2023-04-25T15:23:53.599Z,5.28
2023-04-25T15:26:21.151Z,4.20
2023-04-25T15:28:49.378Z,3.40
2023-04-25T15:31:16.804Z,3.30
2023-04-25T15:33:44.261Z,3.92
2023-04-25T15:36:12.114Z,1.60
2023-04-25T15:38:39.547Z,4.32
2023-04-25T15:41:08.328Z,3.37
2023-04-25T15:43:38.168Z,2.60
2023-04-25T15:46:05.927Z,2.95
2023-04-25T15:48:34.026Z,7.15
2023-04-25T15:51:01.824Z,3.88
2023-04-25T15:53:29.245Z,24.27
2023-04-25T15:55:56.665Z,8.90
2023-04-25T15:58:27.281Z,6.80
2023-04-25T16:00:55.582Z,6.03
2023-04-25T16:03:23.730Z,4.68
2023-04-25T16:05:51.362Z,5.10
2023-04-25T16:08:18.886Z,5.25
2023-04-25T16:10:46.326Z,5.82
2023-04-25T16:13:13.795Z,9.07
2023-04-25T16:15:42.634Z,2.35
2023-04-25T16:18:10.194Z,3.40
2023-04-25T16:20:37.667Z,6.10
2023-04-25T16:23:05.080Z,2.95
2023-04-25T16:25:32.521Z,4.35
2023-04-25T16:27:59.953Z,6.13
2023-04-25T16:30:27.396Z,5.33
2023-04-25T16:32:57.238Z,4.53
2023-04-25T16:35:25.421Z,6.43
2023-04-25T16:37:53.009Z,2.15
2023-04-25T16:40:20.903Z,3.95
2023-04-25T16:42:48.309Z,4.77
2023-04-25T16:45:17.726Z,8.07
2023-04-25T16:47:45.998Z,9.07
2023-04-25T16:50:15.859Z,7.53
2023-04-25T16:52:44.613Z,5.20
2023-04-25T16:55:12.304Z,6.20
2023-04-25T16:57:39.715Z,5.03
2023-04-25T17:00:09.884Z,6.82
2023-04-25T17:02:37.522Z,6.15
2023-04-25T17:05:05.693Z,7.00
2023-04-25T17:07:34.467Z,5.90
2023-04-25T17:10:02.050Z,10.07
2023-04-25T17:12:29.498Z,6.93
2023-04-25T17:14:56.966Z,8.32
2023-04-25T17:17:26.046Z,2.97
2023-04-25T17:19:53.483Z,7.33
2023-04-25T17:22:22.203Z,6.78
2023-04-25T17:24:51.083Z,6.20
2023-04-25T17:27:18.522Z,7.78
2023-04-25T17:29:45.936Z,5.45
2023-04-25T17:32:15.067Z,9.73
2023-04-25T17:34:46.072Z,7.15
2023-04-25T17:37:16.144Z,7.25
2023-04-25T17:39:43.877Z,6.07
2023-04-25T17:42:14.442Z,7.07
2023-04-25T17:44:42.104Z,6.10
2023-04-25T17:47:11.368Z,5.20
2023-04-25T17:49:39.272Z,5.63
2023-04-25T17:52:07.377Z,3.35
2023-04-25T17:54:35.200Z,4.68
2023-04-25T17:57:02.820Z,6.13
2023-04-25T17:59:32.293Z,4.68
2023-04-25T18:02:00.914Z,8.27
2023-04-25T18:04:28.879Z,4.43
2023-04-25T18:06:56.663Z,5.85
2023-04-25T18:09:27.862Z,4.97
2023-04-25T18:11:56.382Z,10.48
2023-04-25T18:14:26.811Z,4.72
2023-04-25T18:16:55.988Z,4.63
2023-04-25T18:19:23.912Z,18.88
2023-04-25T18:21:54.337Z,6.50
2023-04-25T18:24:23.730Z,5.72
2023-04-25T18:26:53.474Z,5.15
2023-04-25T18:29:32.251Z,4.85
2023-04-25T18:32:02.260Z,8.20
2023-04-25T18:34:30.026Z,7.47
2023-04-25T18:36:57.957Z,8.20
2023-04-25T18:39:26.183Z,7.65
2023-04-25T18:42:00.161Z,7.13
2023-04-25T18:44:33.675Z,6.82
2023-04-25T18:47:02.838Z,6.30
2023-04-25T18:49:30.742Z,5.57
2023-04-25T18:51:58.747Z,3.67
2023-04-25T18:54:26.369Z,4.40
2023-04-25T18:56:55.678Z,7.88
2023-04-25T18:59:23.965Z,3.77
2023-04-25T19:01:53.602Z,4.32
2023-04-25T19:04:23.020Z,8.23
2023-04-25T19:06:51.380Z,6.53
2023-04-25T19:09:19.311Z,9.40
2023-04-25T19:11:47.207Z,7.97
2023-04-25T19:14:15.790Z,4.88
2023-04-25T19:16:43.559Z,8.98
2023-04-25T19:19:11.494Z,5.35
2023-04-25T19:21:41.587Z,5.75
2023-04-25T19:24:09.609Z,5.97
2023-04-25T19:26:37.273Z,6.30
2023-04-25T19:29:06.975Z,4.20
2023-04-25T19:31:38.131Z,6.68
2023-04-25T19:34:07.143Z,6.03
2023-04-25T19:36:35.511Z,6.00
2023-04-25T19:39:07.074Z,5.25
2023-04-25T19:41:36.793Z,4.47
2023-04-25T19:44:06.442Z,9.15
2023-04-25T19:46:35.053Z,6.88
2023-04-25T19:49:05.368Z,4.90
2023-04-25T19:51:34.925Z,5.65
2023-04-25T19:54:04.241Z,7.00
2023-04-25T19:56:32.533Z,3.70
2023-04-25T19:59:00.322Z,6.72
2023-04-25T20:01:28.393Z,5.83
2023-04-25T20:03:56.657Z,10.55
2023-04-25T20:06:24.538Z,8.60
2023-04-25T20:08:54.745Z,6.15
2023-04-25T20:11:23.905Z,5.80
2023-04-25T20:13:51.842Z,10.47
2023-04-25T20:16:21.761Z,6.20
2023-04-25T20:18:50.276Z,6.20
2023-04-25T20:21:20.407Z,5.70
2023-04-25T20:23:48.171Z,4.65
2023-04-25T20:26:16.039Z,4.40
2023-04-25T20:28:46.207Z,6.20
2023-04-25T20:31:14.265Z,6.65
2023-04-25T20:33:43.774Z,5.13
2023-04-25T20:36:11.415Z,6.68
2023-04-25T20:38:39.071Z,6.17
2023-04-25T20:41:06.714Z,4.85
2023-04-25T20:43:34.393Z,2.25
2023-04-25T20:46:04.227Z,5.40
2023-04-25T20:48:31.974Z,4.60
2023-04-25T20:51:00.223Z,6.73
2023-04-25T20:53:27.903Z,7.43
2023-04-25T20:55:55.519Z,7.10
2023-04-25T20:58:23.046Z,8.93
2023-04-25T21:00:51.255Z,5.13
2023-04-25T21:03:20.788Z,5.00
2023-04-25T21:05:48.557Z,4.93
2023-04-25T21:08:16.076Z,6.40
2023-04-25T21:10:44.090Z,4.88
2023-04-25T21:13:12.270Z,6.47
2023-04-25T21:15:42.438Z,7.80
2023-04-25T21:18:10.109Z,5.07
2023-04-25T21:20:40.430Z,5.55
2023-04-25T21:23:07.993Z,3.80
2023-04-25T21:25:35.627Z,11.25
2023-04-25T21:28:03.303Z,6.80
2023-04-25T21:30:30.876Z,3.90
2023-04-25T21:32:58.579Z,8.30
2023-04-25T21:35:26.567Z,7.85
2023-04-25T21:37:55.517Z,5.15
2023-04-25T21:40:23.121Z,6.10
2023-04-25T21:42:51.830Z,5.80
2023-04-25T21:45:20.398Z,6.57
2023-04-25T21:47:48.558Z,4.90
2023-04-25T21:50:16.429Z,5.45
2023-04-25T21:52:44.155Z,5.33
2023-04-25T21:55:13.134Z,3.72
2023-04-25T21:57:41.124Z,8.60
2023-04-25T22:00:20.670Z,7.78
2023-04-25T22:02:48.529Z,5.82
2023-04-25T22:05:16.745Z,8.23
2023-04-25T22:07:44.723Z,6.82
2023-04-25T22:10:13.741Z,6.50
2023-04-25T22:12:41.405Z,5.93
2023-04-25T22:15:10.330Z,5.60
2023-04-25T22:17:38.773Z,11.43
2023-04-25T22:20:10.057Z,3.63
2023-04-25T22:22:37.683Z,10.02
2023-04-25T22:25:07.206Z,6.10
2023-04-25T22:27:36.311Z,6.70
2023-04-25T22:30:04.683Z,3.83
2023-04-25T22:32:32.746Z,5.50
2023-04-25T22:35:00.374Z,7.15
2023-04-25T22:37:28.805Z,4.60
2023-04-25T22:39:56.312Z,6.65
2023-04-25T22:42:23.924Z,8.17
2023-04-25T22:44:53.833Z,3.92
2023-04-25T22:47:22.977Z,4.85
2023-04-25T22:49:51.585Z,4.10
2023-04-25T22:52:19.241Z,7.55
2023-04-25T22:54:46.861Z,5.27
2023-04-25T22:57:14.605Z,5.90
2023-04-25T22:59:42.187Z,4.38
2023-04-25T23:02:11.252Z,5.00
2023-04-25T23:04:39.260Z,5.28
2023-04-25T23:07:06.907Z,4.83
2023-04-25T23:09:34.450Z,5.18
2023-04-25T23:12:02.049Z,8.10
2023-04-25T23:14:29.618Z,8.93
2023-04-25T23:16:57.313Z,5.97
2023-04-25T23:19:26.500Z,4.80
2023-04-25T23:21:54.047Z,5.35
2023-04-25T23:24:21.657Z,6.32
2023-04-25T23:26:49.200Z,6.95
2023-04-25T23:29:16.951Z,8.10
2023-04-25T23:31:44.506Z,6.27
2023-04-25T23:34:12.770Z,8.23
2023-04-25T23:36:41.768Z,4.35
2023-04-25T23:39:10.295Z,5.88
2023-04-25T23:41:37.846Z,6.70
2023-04-25T23:44:07.764Z,4.97
2023-04-25T23:46:35.792Z,5.47
2023-04-25T23:49:04.482Z,11.80
2023-04-25T23:51:32.297Z,6.47
2023-04-25T23:54:02.456Z,6.82
2023-04-25T23:56:31.942Z,6.83
2023-04-25T23:58:59.584Z,10.20
